Time;durP1;ratioP1;P1;durP2;ratioP2;P2;SDS_P1;SDS_P2;PMS_P1;PMS_P2;Temp;Humidity;BMP_temperature;BMP_pressure;BME280_temperature;BME280_humidity;BME280_pressure;Samples;Min_cycle;Max_cycle;Signal;HPM_P1;HPM_P2
2022/02/05 00:01:13;;;;;;;95.00;29.77;;;;;;;-1.94;71.52;99089.28;1741564;79;21099;-81
2022/02/05 00:03:42;;;;;;;85.87;29.87;;;;;;;-2.00;70.21;99084.47;1747288;82;21131;-80
2022/02/05 00:06:07;;;;;;;76.97;25.92;;;;;;;-2.07;70.69;99083.00;1746779;82;22262;-80
2022/02/05 00:41:47;;;;;;;95.12;29.63;;;;;;;-2.49;71.94;99097.19;1709373;81;21005;-85
2022/02/05 00:44:04;;;;;;;73.40;25.57;;;;;;;-2.50;72.48;99095.91;1710400;81;20982;-83
2022/02/05 00:46:36;;;;;;;84.03;29.80;;;;;;;-2.49;72.25;99098.47;1730733;80;21100;-82
2022/02/05 00:49:00;;;;;;;68.20;24.35;;;;;;;-2.46;71.76;99104.07;1757352;80;21103;-85
2022/02/05 00:51:35;;;;;;;76.92;27.73;;;;;;;-2.54;71.48;99096.64;1705343;80;21187;-85
2022/02/05 00:54:18;;;;;;;74.50;24.90;;;;;;;-2.53;72.72;99099.63;1696318;82;21109;-83
2022/02/05 00:59:17;;;;;;;70.00;24.45;;;;;;;-2.44;73.33;99096.92;1680432;81;21168;-83
2022/02/05 01:01:45;;;;;;;65.57;24.67;;;;;;;-2.44;72.54;99102.43;1666137;85;21084;-82
2022/02/05 01:04:12;;;;;;;81.60;27.45;;;;;;;-2.44;72.36;99092.25;1666394;86;21077;-81
2022/02/05 01:06:40;;;;;;;64.32;24.35;;;;;;;-2.44;73.34;99092.25;1666761;86;21045;-82
2022/02/05 01:09:14;;;;;;;68.47;25.77;;;;;;;-2.40;72.98;99091.50;1666735;84;21062;-82
2022/02/05 01:11:39;;;;;;;57.45;21.90;;;;;;;-2.39;72.97;99093.21;1667001;84;21034;-82
2022/02/05 01:14:09;;;;;;;75.42;23.18;;;;;;;-2.37;72.63;99086.47;1666784;84;21125;-84
2022/02/05 01:19:24;;;;;;;65.50;23.57;;;;;;;-2.38;72.59;99082.64;1666909;84;21057;-84
2022/02/05 01:21:48;;;;;;;65.10;23.70;;;;;;;-2.37;73.07;99080.53;1666611;84;20991;-84
2022/02/05 01:24:12;;;;;;;70.42;24.75;;;;;;;-2.45;72.53;99077.78;1665170;84;21057;-84
2022/02/05 01:26:43;;;;;;;52.50;21.23;;;;;;;-2.51;72.79;99075.07;1666958;83;21053;-83
2022/02/05 01:29:24;;;;;;;63.52;22.77;;;;;;;-2.51;72.07;99073.80;1666756;84;21081;-85
2022/02/05 01:31:43;;;;;;;62.95;22.85;;;;;;;-2.57;72.75;99072.36;1662947;84;21156;-85
2022/02/05 01:34:27;;;;;;;59.80;23.32;;;;;;;-2.56;73.16;99077.50;1666748;83;21372;-84
2022/02/05 01:50:33;;;;;;;61.23;22.80;;;;;;;-2.59;72.57;99068.50;1647694;86;21077;-84
2022/02/05 01:55:38;;;;;;;60.95;22.13;;;;;;;-2.57;72.78;99078.31;1641749;85;21245;-84
2022/02/05 01:58:15;;;;;;;54.67;21.40;;;;;;;-2.57;73.07;99073.64;1646157;85;20994;-84
2022/02/05 02:06:13;;;;;;;55.70;21.25;;;;;;;-2.49;72.74;99061.55;1647605;82;21125;-84
2022/02/05 02:14:12;;;;;;;61.37;24.57;;;;;;;-2.42;73.20;99072.78;1647793;86;21037;-84
2022/02/05 02:16:35;;;;;;;54.77;21.68;;;;;;;-2.38;73.46;99065.67;1639853;84;21277;-83
2022/02/05 02:21:33;;;;;;;64.58;22.62;;;;;;;-2.31;72.95;99075.17;1761405;79;21336;-84
2022/02/05 02:27:32;;;;;;;57.78;23.02;;;;;;;-2.25;72.96;99067.72;1776249;81;21050;-82
2022/02/05 02:29:07;;;;;;;62.62;24.15;;;;;;;-2.21;73.10;99067.36;1736130;81;20966;-82
2022/02/05 02:32:04;;;;;;;72.72;23.32;;;;;;;-2.17;73.06;99060.67;1775842;81;21038;-82
2022/02/05 02:34:37;;;;;;;71.12;24.15;;;;;;;-2.14;73.09;99065.44;1776543;81;21018;-83
2022/02/05 02:37:29;;;;;;;66.57;24.65;;;;;;;-2.13;73.08;99068.83;1740696;80;21347;-81
2022/02/05 02:40:14;;;;;;;66.87;23.00;;;;;;;-2.20;73.10;99055.09;1724213;83;21107;-85
2022/02/05 02:43:00;;;;;;;57.45;23.12;;;;;;;-2.10;72.85;99068.92;1725682;83;20973;-84
2022/02/05 02:45:29;;;;;;;60.48;21.62;;;;;;;-2.09;72.90;99062.98;1698111;80;21193;31
2022/02/05 02:47:56;;;;;;;60.63;23.07;;;;;;;-2.07;73.10;99060.06;1672533;81;21039;-82
2022/02/05 02:58:37;;;;;;;54.85;18.77;;;;;;;-2.04;72.67;99062.70;1634608;87;21145;-83
2022/02/05 03:01:24;;;;;;;48.30;20.45;;;;;;;-2.08;72.34;99061.77;1674559;79;21099;31
2022/02/05 03:03:51;;;;;;;53.25;20.45;;;;;;;-2.06;72.19;99054.16;1636884;84;21151;-83
2022/02/05 03:06:22;;;;;;;46.88;19.45;;;;;;;-2.08;72.36;99060.91;1673466;83;21011;-83
2022/02/05 03:08:50;;;;;;;53.25;19.73;;;;;;;-2.05;71.83;99058.03;1670274;84;21015;-82
2022/02/05 03:13:49;;;;;;;45.98;18.75;;;;;;;-2.14;72.48;99055.66;1662055;86;21045;-82
2022/02/05 03:16:22;;;;;;;49.42;18.67;;;;;;;-2.11;72.47;99057.88;1692269;84;21096;-83
2022/02/05 03:19:11;;;;;;;43.68;18.65;;;;;;;-2.07;72.64;99066.44;1702570;79;23232;31
2022/02/05 03:21:38;;;;;;;50.38;18.07;;;;;;;-2.10;71.96;99062.14;1704075;79;21091;-83
2022/02/05 03:24:06;;;;;;;54.75;18.75;;;;;;;-2.13;72.11;99059.92;1740045;79;21084;-82
2022/02/05 03:26:35;;;;;;;52.30;18.40;;;;;;;-2.16;71.92;99061.98;1739654;79;21021;-83
2022/02/05 03:29:07;;;;;;;46.73;18.07;;;;;;;-2.19;72.14;99060.62;1734527;79;23095;31
2022/02/05 03:31:35;;;;;;;45.40;20.00;;;;;;;-2.15;72.11;99065.39;1650512;84;21421;-81
2022/02/05 03:34:03;;;;;;;48.90;18.30;;;;;;;-2.14;71.88;99066.70;1632004;85;21076;-82
2022/02/05 03:36:30;;;;;;;46.80;18.57;;;;;;;-2.15;72.01;99067.94;1650588;85;21043;-82
2022/02/05 03:38:57;;;;;;;49.90;19.65;;;;;;;-2.13;72.38;99062.47;1650462;85;21059;-83
2022/02/05 03:41:24;;;;;;;55.60;18.50;;;;;;;-2.13;72.26;99054.44;1650567;85;21068;-83
2022/02/05 03:43:51;;;;;;;44.95;18.45;;;;;;;-2.10;72.29;99059.59;1677205;81;22545;-75
2022/02/05 03:46:18;;;;;;;49.23;18.60;;;;;;;-2.07;72.26;99049.88;1671713;81;21050;-84
2022/02/05 03:48:45;;;;;;;49.48;19.92;;;;;;;-2.04;72.19;99040.63;1671438;81;21083;-83
2022/02/05 03:51:12;;;;;;;46.48;17.42;;;;;;;-2.04;71.75;99058.47;1671199;81;21151;-83
2022/02/05 03:53:39;;;;;;;47.55;19.10;;;;;;;-2.11;71.67;99064.25;1671326;83;21135;-83
2022/02/05 03:56:06;;;;;;;46.30;18.62;;;;;;;-2.15;71.96;99062.42;1649216;82;21070;-83
2022/02/05 03:58:33;;;;;;;50.50;18.30;;;;;;;-2.17;72.04;99060.25;1671366;81;21067;-83
2022/02/05 04:01:02;;;;;;;54.93;21.07;;;;;;;-2.15;72.05;99055.20;1669018;80;21079;-83
2022/02/05 04:03:29;;;;;;;47.17;20.17;;;;;;;-2.13;72.37;99058.64;1644320;86;21038;-82
2022/02/05 04:05:57;;;;;;;48.78;19.35;;;;;;;-2.12;72.42;99048.92;1643745;87;21080;-82
2022/02/05 04:08:24;;;;;;;58.68;20.12;;;;;;;-2.12;72.19;99060.39;1667952;86;21015;-83
2022/02/05 04:11:04;;;;;;;49.73;19.32;;;;;;;-2.14;72.16;99052.70;1671258;86;21010;-83
2022/02/05 04:16:22;;;;;;;49.67;21.02;;;;;;;-2.22;72.17;99062.69;1671528;81;21123;-85
2022/02/05 04:18:39;;;;;;;58.63;21.12;;;;;;;-2.23;71.90;99067.34;1671691;81;21034;-83
2022/02/05 04:21:06;;;;;;;51.98;19.35;;;;;;;-2.27;71.77;99078.28;1671165;81;21107;-83
2022/02/05 04:23:34;;;;;;;44.15;18.65;;;;;;;-2.30;71.68;99062.91;1671007;81;20976;-83
2022/02/05 04:26:00;;;;;;;46.02;19.48;;;;;;;-2.41;71.95;99060.48;1671051;81;21022;-82
2022/02/05 04:31:00;;;;;;;49.95;19.12;;;;;;;-2.62;71.86;99035.34;1732097;80;21003;-83
2022/02/05 04:33:27;;;;;;;54.05;19.82;;;;;;;-2.46;72.33;99073.52;1719758;79;21071;-81
2022/02/05 04:35:54;;;;;;;59.77;20.37;;;;;;;-2.42;72.73;99060.91;1690627;83;21036;-81
2022/02/05 04:38:22;;;;;;;52.65;19.92;;;;;;;-2.35;73.11;99058.09;1690655;84;21132;-84
2022/02/05 04:40:55;;;;;;;54.83;21.55;;;;;;;-2.31;72.99;99058.63;1684028;84;21122;-83
2022/02/05 04:43:39;;;;;;;54.98;22.15;;;;;;;-2.27;72.96;99063.00;1676358;85;21135;-83
2022/02/05 04:59:54;;;;;;;57.15;23.47;;;;;;;-2.02;73.20;99067.00;1693085;83;20998;-84
2022/02/05 05:12:51;;;;;;;45.52;18.55;;;;;;;-1.91;73.50;99064.73;1618437;89;21063;-83
2022/02/05 05:20:34;;;;;;;50.50;20.23;;;;;;;-1.80;74.28;99072.63;1702323;81;21067;-82
2022/02/05 05:23:01;;;;;;;46.83;18.92;;;;;;;-1.72;73.91;99069.84;1730786;81;20996;-83
2022/02/05 05:25:28;;;;;;;52.75;18.57;;;;;;;-1.66;74.02;99072.95;1730863;81;21001;-83
2022/02/05 05:27:55;;;;;;;44.03;20.25;;;;;;;-1.61;73.93;99072.24;1730935;81;21011;-82
2022/02/05 05:30:21;;;;;;;47.17;17.98;;;;;;;-1.56;73.94;99067.23;1730804;81;21043;-81
2022/02/05 05:32:48;;;;;;;45.85;17.37;;;;;;;-1.54;74.01;99059.21;1730954;81;21065;-83
2022/02/05 05:35:15;;;;;;;39.85;16.20;;;;;;;-1.50;73.97;99076.30;1730820;81;21011;-83
2022/02/05 05:37:49;;;;;;;40.83;17.27;;;;;;;-1.45;73.72;99083.66;1736075;79;21079;31
2022/02/05 05:40:17;;;;;;;44.60;17.37;;;;;;;-1.46;73.83;99089.56;1760667;81;21028;-83
2022/02/05 05:42:52;;;;;;;40.58;17.70;;;;;;;-1.47;74.31;99080.21;1719646;81;21139;-80
2022/02/05 05:47:55;;;;;;;48.05;19.05;;;;;;;-1.45;74.50;99078.55;1688804;81;21159;-82
2022/02/05 05:53:00;;;;;;;60.03;23.85;;;;;;;-1.37;75.04;99067.64;1688832;82;21338;-81
2022/02/05 05:55:28;;;;;;;69.75;24.90;;;;;;;-1.31;74.50;99076.73;1688779;81;21008;-82
2022/02/05 05:57:56;;;;;;;65.55;23.92;;;;;;;-1.27;75.35;99090.00;1688862;82;21084;-82
2022/02/05 06:00:23;;;;;;;46.15;18.30;;;;;;;-1.20;75.25;99094.39;1688902;82;21067;-81
2022/02/05 06:02:50;;;;;;;50.58;20.43;;;;;;;-1.15;75.38;99092.81;1688836;81;21048;-83
2022/02/05 06:05:17;;;;;;;44.85;19.05;;;;;;;-1.10;75.30;99082.28;1659154;79;21170;-83
2022/02/05 06:07:44;;;;;;;57.20;22.37;;;;;;;-1.08;75.79;99074.23;1690691;80;21122;-84
2022/02/05 06:10:11;;;;;;;36.60;15.38;;;;;;;-1.04;74.79;99078.58;1695285;81;21047;-82
2022/02/05 06:12:38;;;;;;;42.90;16.30;;;;;;;-1.01;75.00;99076.11;1674000;83;21009;-83
2022/02/05 06:15:08;;;;;;;32.63;13.20;;;;;;;-0.98;74.97;99082.10;1705701;79;21141;-80
2022/02/05 06:17:36;;;;;;;34.60;14.40;;;;;;;-0.97;75.07;99084.69;1763393;81;21320;-86
2022/02/05 06:20:08;;;;;;;37.08;14.10;;;;;;;-0.93;75.03;99086.90;1729654;79;21103;-82
2022/02/05 06:22:38;;;;;;;37.25;15.50;;;;;;;-0.90;74.86;99080.56;1678941;81;21071;-83
2022/02/05 06:25:06;;;;;;;37.15;13.58;;;;;;;-0.89;75.08;99078.47;1678980;81;21094;-84
2022/02/05 06:27:33;;;;;;;33.88;15.38;;;;;;;-0.84;74.75;99073.03;1678928;81;21109;-82
2022/02/05 06:30:00;;;;;;;31.65;13.08;;;;;;;-0.94;74.28;99061.77;1678957;81;21543;-82
2022/02/05 06:32:27;;;;;;;33.38;15.00;;;;;;;-0.77;74.15;99081.69;1651376;83;21083;-82
2022/02/05 06:34:54;;;;;;;33.88;12.85;;;;;;;-0.72;74.09;99089.86;1656358;83;21007;-83
2022/02/05 06:37:21;;;;;;;28.60;12.60;;;;;;;-0.70;73.93;99076.71;1673273;82;21245;-82
2022/02/05 06:39:47;;;;;;;34.88;13.78;;;;;;;-0.67;73.80;99072.10;1651920;83;21042;-83
2022/02/05 06:42:14;;;;;;;22.95;10.88;;;;;;;-0.62;73.60;99063.70;1670908;83;21033;-83
2022/02/05 06:47:34;;;;;;;26.27;12.13;;;;;;;-0.53;72.94;99079.61;1654052;84;21103;-85
2022/02/05 06:50:01;;;;;;;34.58;14.93;;;;;;;-0.46;73.02;99092.95;1634331;87;21096;-82
2022/02/05 06:52:28;;;;;;;31.95;14.58;;;;;;;-0.41;73.04;99077.70;1636164;82;21116;-77
2022/02/05 06:54:55;;;;;;;32.63;12.93;;;;;;;-0.42;73.37;99065.74;1763785;80;21047;-83
2022/02/05 06:57:22;;;;;;;35.43;13.65;;;;;;;-0.35;73.08;99070.57;1729876;81;21059;-81
2022/02/05 06:59:49;;;;;;;40.78;15.25;;;;;;;-0.31;73.07;99072.34;1726552;81;21185;-81
2022/02/05 07:02:15;;;;;;;33.53;13.18;;;;;;;-0.28;73.05;99071.99;1746215;80;21125;-81
2022/02/05 07:04:43;;;;;;;33.30;12.28;;;;;;;-0.22;72.84;99072.09;1745911;82;21156;-81
2022/02/05 07:07:09;;;;;;;36.90;14.87;;;;;;;-0.18;72.70;99056.37;1746006;82;21154;-81
2022/02/05 07:09:38;;;;;;;35.13;13.95;;;;;;;-0.15;72.56;99061.55;1728819;83;21028;-83
2022/02/05 07:12:09;;;;;;;30.57;14.13;;;;;;;-0.10;72.52;99062.91;1719728;81;21334;-81
2022/02/05 07:15:01;;;;;;;28.73;11.15;;;;;;;-0.06;72.02;99059.17;1723289;81;21097;31
2022/02/05 07:17:29;;;;;;;26.33;11.15;;;;;;;0.02;71.71;99056.75;1651208;86;20984;-84
2022/02/05 07:22:45;;;;;;;27.75;12.40;;;;;;;0.02;71.27;99059.30;1730242;81;21090;-84
2022/02/05 07:30:22;;;;;;;29.52;13.32;;;;;;;-0.03;72.56;99064.31;1695403;82;20967;-83
2022/02/05 07:32:49;;;;;;;29.65;12.90;;;;;;;-0.06;72.86;99061.72;1695209;82;21082;-83
2022/02/05 07:35:16;;;;;;;40.55;15.63;;;;;;;-0.06;72.77;99060.84;1701999;79;21052;-80
2022/02/05 07:37:43;;;;;;;35.78;14.60;;;;;;;-0.08;72.95;99060.84;1710798;79;20982;-84
2022/02/05 07:40:11;;;;;;;37.55;15.45;;;;;;;-0.14;73.35;99060.73;1710733;79;21029;-84
2022/02/05 07:45:15;;;;;;;33.90;14.87;;;;;;;-0.16;73.17;99061.52;1669609;86;20948;-83
2022/02/05 07:47:42;;;;;;;33.53;13.48;;;;;;;-0.12;72.84;99061.63;1639299;85;21094;-84
2022/02/05 07:50:09;;;;;;;37.93;15.55;;;;;;;-0.11;73.05;99071.42;1654403;81;21360;-85
2022/02/05 07:52:37;;;;;;;52.53;17.62;;;;;;;-0.04;72.82;99071.55;1722234;79;21093;-83
2022/02/05 07:55:05;;;;;;;47.85;16.50;;;;;;;0.04;72.72;99078.08;1766219;80;21091;-86
2022/02/05 07:57:32;;;;;;;43.10;18.02;;;;;;;0.12;72.75;99075.23;1766142;80;21027;-83
2022/02/05 07:59:59;;;;;;;37.90;15.30;;;;;;;0.24;72.71;99067.30;1766144;80;21161;-84
2022/02/05 08:02:26;;;;;;;37.08;15.53;;;;;;;0.26;72.50;99060.50;1722269;78;21169;-82
2022/02/05 08:04:53;;;;;;;41.88;15.63;;;;;;;0.34;72.34;99059.80;1704656;83;21005;-82
2022/02/05 08:07:20;;;;;;;32.50;14.13;;;;;;;0.45;72.22;99071.47;1704441;83;21034;-82
2022/02/05 08:12:20;;;;;;;33.30;13.83;;;;;;;0.66;71.95;99057.28;1689857;84;21065;-84
2022/02/05 08:14:50;;;;;;;32.80;15.38;;;;;;;0.76;71.26;99053.59;1672867;78;21182;-82
2022/02/05 08:17:23;;;;;;;28.67;12.70;;;;;;;0.86;71.18;99039.21;1755129;78;21046;-87
2022/02/05 08:19:45;;;;;;;35.28;12.37;;;;;;;0.95;70.12;99041.02;1700354;78;21104;-88
2022/02/05 08:22:13;;;;;;;31.33;13.15;;;;;;;1.05;70.04;99035.59;1700637;81;21130;-83
2022/02/05 08:24:40;;;;;;;38.40;13.68;;;;;;;1.14;69.12;99035.28;1704032;80;21055;-88
2022/02/05 08:27:09;;;;;;;23.40;9.98;;;;;;;1.26;69.62;99032.44;1761904;81;21074;-89
2022/02/05 08:29:40;;;;;;;26.02;11.63;;;;;;;1.42;68.47;99025.78;1739674;81;21098;-84
2022/02/05 08:32:08;;;;;;;26.57;12.70;;;;;;;1.61;68.68;99028.09;1733758;81;21439;-89
2022/02/05 08:34:35;;;;;;;31.55;11.83;;;;;;;1.75;68.12;99023.95;1732183;82;21034;-87
2022/02/05 08:37:02;;;;;;;24.65;11.53;;;;;;;1.92;67.34;99024.11;1716512;81;21058;-88
2022/02/05 08:39:29;;;;;;;29.30;11.33;;;;;;;2.00;66.69;99023.75;1733527;82;21062;-90
2022/02/05 08:41:55;;;;;;;19.80;9.73;;;;;;;2.12;66.75;99028.13;1733475;81;21522;-88
2022/02/05 08:44:22;;;;;;;20.50;9.25;;;;;;;2.23;66.88;99025.63;1713272;83;21042;-89
2022/02/05 08:46:49;;;;;;;25.75;10.35;;;;;;;2.41;66.53;99029.62;1729431;82;21042;-89
2022/02/05 08:49:15;;;;;;;24.50;11.33;;;;;;;2.54;66.62;99026.27;1733515;82;21520;-89
2022/02/05 08:51:42;;;;;;;28.90;11.63;;;;;;;2.62;65.94;99022.46;1730594;82;20987;-89
2022/02/05 08:54:09;;;;;;;22.95;11.48;;;;;;;2.64;65.68;99031.03;1737355;81;20998;-88
2022/02/05 08:56:35;;;;;;;24.15;11.00;;;;;;;2.70;65.64;99028.92;1750083;81;20971;-88
2022/02/05 08:59:04;;;;;;;27.87;11.25;;;;;;;2.75;65.79;99028.11;1733293;82;21043;-89
2022/02/05 09:01:46;;;;;;;22.13;9.83;;;;;;;2.79;65.85;99037.54;1736346;81;21074;-88
2022/02/05 09:04:17;;;;;;;25.08;10.28;;;;;;;2.90;66.35;99047.00;1739558;81;21018;-85
2022/02/05 09:06:39;;;;;;;25.25;10.18;;;;;;;2.81;65.84;99045.26;1738819;80;21089;-88
2022/02/05 09:09:18;;;;;;;26.82;11.00;;;;;;;2.88;65.93;99052.55;1766120;81;21046;-89
2022/02/05 09:11:37;;;;;;;23.98;10.85;;;;;;;2.90;66.52;99044.00;1762995;79;21637;-90
2022/02/05 09:14:34;;;;;;;28.25;10.20;;;;;;;2.88;65.61;99053.41;1762853;80;21224;-84
2022/02/05 09:16:59;;;;;;;26.85;9.93;;;;;;;2.94;66.20;99059.86;1766542;80;21155;-83
2022/02/05 09:19:28;;;;;;;26.80;9.70;;;;;;;2.94;65.45;99084.69;1765302;80;20999;-89
2022/02/05 09:21:55;;;;;;;30.17;10.32;;;;;;;2.97;65.54;99068.88;1761134;81;21051;-88
2022/02/05 09:24:24;;;;;;;23.00;10.53;;;;;;;3.01;65.45;99084.31;1761078;81;21060;-89
2022/02/05 09:26:58;;;;;;;25.95;11.43;;;;;;;3.02;65.30;99087.30;1764975;79;20970;-86
2022/02/05 09:29:25;;;;;;;24.95;10.43;;;;;;;3.04;65.37;99074.03;1679218;85;21054;-87
2022/02/05 09:31:52;;;;;;;20.68;10.32;;;;;;;3.08;64.59;99068.06;1675752;85;21026;-88
2022/02/05 09:34:20;;;;;;;26.80;11.08;;;;;;;3.12;64.69;99060.80;1680032;85;21514;-88
2022/02/05 09:36:48;;;;;;;27.58;12.13;;;;;;;3.17;65.08;99063.83;1762332;79;21090;-90
2022/02/05 09:39:15;;;;;;;26.33;10.50;;;;;;;3.28;64.80;99058.75;1767905;80;20999;-87
2022/02/05 09:41:43;;;;;;;27.32;11.97;;;;;;;3.47;65.56;99054.95;1759509;79;21041;-88
2022/02/05 09:44:10;;;;;;;26.17;12.85;;;;;;;3.64;65.04;99043.41;1754291;80;21093;-86
2022/02/05 09:46:38;;;;;;;23.35;10.75;;;;;;;3.83;64.06;99032.73;1690598;81;21069;-86
2022/02/05 09:49:06;;;;;;;31.12;12.28;;;;;;;4.01;64.58;99034.45;1714475;80;21082;-84
2022/02/05 09:51:39;;;;;;;31.45;13.88;;;;;;;4.24;64.22;99025.44;1725894;80;21043;-84
2022/02/05 09:54:06;;;;;;;29.60;12.10;;;;;;;4.35;63.74;99025.85;1734102;80;21119;-89
2022/02/05 09:56:35;;;;;;;23.57;10.95;;;;;;;4.51;64.30;99020.25;1740127;82;21125;-83
2022/02/05 09:59:03;;;;;;;22.22;10.50;;;;;;;4.62;63.55;99022.83;1737510;81;21014;-82
2022/02/05 10:01:33;;;;;;;22.15;9.53;;;;;;;4.80;62.70;99021.07;1736833;81;20968;-82
2022/02/05 10:03:59;;;;;;;22.55;9.68;;;;;;;4.95;63.24;99025.74;1739923;81;21051;-82
2022/02/05 10:06:33;;;;;;;25.80;11.25;;;;;;;5.20;63.41;99027.36;1713261;83;21050;-83
2022/02/05 10:09:08;;;;;;;23.98;11.57;;;;;;;5.42;61.46;99020.38;1707255;84;21103;-83
2022/02/05 10:11:57;;;;;;;26.10;10.95;;;;;;;5.58;61.60;99015.55;1715076;83;21055;-83
2022/02/05 10:14:30;;;;;;;21.50;10.10;;;;;;;5.78;61.28;99015.41;1710723;83;21051;-83
2022/02/05 10:17:04;;;;;;;24.40;10.78;;;;;;;5.97;60.54;99012.30;1716051;83;21018;-83
2022/02/05 10:19:52;;;;;;;20.65;10.32;;;;;;;6.18;61.58;99018.56;1739903;83;21113;-84
2022/02/05 10:22:22;;;;;;;19.87;9.18;;;;;;;6.42;60.51;99017.92;1774446;78;21046;-88
2022/02/05 10:24:55;;;;;;;26.07;8.93;;;;;;;6.63;58.08;99014.72;1804960;79;21058;-85
2022/02/05 10:27:31;;;;;;;17.45;7.60;;;;;;;6.79;56.89;99017.55;1804986;78;20974;-83
2022/02/05 10:30:24;;;;;;;22.45;8.48;;;;;;;6.92;58.02;99026.02;1803521;79;21079;-84
2022/02/05 10:33:10;;;;;;;17.48;8.68;;;;;;;6.92;55.03;99025.59;1818634;78;21017;-84
2022/02/05 10:35:49;;;;;;;20.82;9.33;;;;;;;7.04;56.03;99036.65;1825151;78;20979;-84
2022/02/05 10:40:49;;;;;;;22.00;10.20;;;;;;;7.31;57.14;99013.04;1727323;82;21056;-86
2022/02/05 10:43:14;;;;;;;19.87;9.95;;;;;;;7.43;56.07;99023.66;1715480;83;20982;-84
2022/02/05 10:45:48;;;;;;;23.10;9.83;;;;;;;7.55;56.07;99025.23;1706211;83;21038;-85
2022/02/05 10:48:21;;;;;;;23.25;9.83;;;;;;;7.77;55.99;99027.06;1726104;83;21072;-85
2022/02/05 10:50:51;;;;;;;18.65;9.45;;;;;;;7.97;56.00;99016.41;1715334;83;21127;-85
2022/02/05 10:53:37;;;;;;;23.00;10.15;;;;;;;8.10;55.52;99005.42;1708102;82;21099;-85
2022/02/05 10:56:06;;;;;;;20.95;10.55;;;;;;;8.22;56.50;98997.89;1714384;83;21075;-84
2022/02/05 11:07:14;;;;;;;22.93;10.68;;;;;;;8.67;54.02;98983.26;1702033;84;21037;-86
2022/02/05 11:09:43;;;;;;;22.37;9.75;;;;;;;8.72;54.89;98984.48;1719858;82;21306;-83
2022/02/05 11:20:13;;;;;;;16.35;8.85;;;;;;;8.99;54.50;98979.63;1740641;81;21085;-85
2022/02/05 11:22:53;;;;;;;19.65;7.97;;;;;;;8.87;54.31;98995.86;1740150;81;20974;-85
2022/02/05 11:25:22;;;;;;;15.95;8.55;;;;;;;8.77;54.64;98996.89;1740145;80;21046;-85
2022/02/05 11:27:52;;;;;;;17.27;8.33;;;;;;;8.72;54.31;98996.16;1740861;81;21010;-85
2022/02/05 11:30:33;;;;;;;16.62;8.38;;;;;;;8.64;54.58;98992.85;1742118;81;21077;-86
2022/02/05 11:33:06;;;;;;;18.55;8.30;;;;;;;8.66;54.88;98998.41;1742679;80;21058;-85
2022/02/05 11:38:33;;;;;;;15.35;8.90;;;;;;;8.64;55.68;99007.95;1712708;84;21013;-85
2022/02/05 11:41:02;;;;;;;15.45;7.53;;;;;;;8.60;54.71;98998.98;1712903;84;21042;-85
2022/02/05 11:43:32;;;;;;;14.43;7.70;;;;;;;8.49;55.11;99005.19;1712752;81;21037;-85
2022/02/05 11:46:09;;;;;;;16.70;7.62;;;;;;;8.55;55.28;99007.69;1712867;84;21018;-84
2022/02/05 11:48:57;;;;;;;15.55;6.58;;;;;;;8.66;55.46;99007.48;1709841;84;20990;-85
2022/02/05 11:51:49;;;;;;;15.23;7.12;;;;;;;8.81;55.66;99002.88;1735076;82;20983;-86
2022/02/05 11:54:16;;;;;;;17.32;6.78;;;;;;;8.89;54.53;99004.46;1741526;81;20928;-85
2022/02/05 11:57:02;;;;;;;15.70;8.40;;;;;;;9.06;54.98;99003.27;1709065;84;21075;-85
2022/02/05 11:59:27;;;;;;;20.05;8.30;;;;;;;9.10;54.31;98997.13;1760758;80;21022;-86
2022/02/05 12:02:18;;;;;;;20.02;8.73;;;;;;;9.15;54.00;98993.97;1773188;80;20986;-86
2022/02/05 12:04:53;;;;;;;21.60;9.83;;;;;;;9.22;54.08;98990.83;1772867;80;21002;31
2022/02/05 12:07:21;;;;;;;21.12;9.28;;;;;;;9.32;54.09;98989.29;1688889;83;21163;-89
2022/02/05 12:09:48;;;;;;;25.08;12.47;;;;;;;9.48;54.50;98985.06;1694716;84;20995;-85
2022/02/05 12:12:38;;;;;;;15.03;7.58;;;;;;;9.87;54.85;98995.44;1692465;85;21080;-85
2022/02/05 12:15:17;;;;;;;9.68;5.12;;;;;;;10.79;51.98;98981.84;1697671;85;21135;-87
2022/02/05 12:18:12;;;;;;;14.20;6.97;;;;;;;11.86;45.45;98992.11;1698400;85;21004;-87
2022/02/05 12:26:04;;;;;;;11.93;5.95;;;;;;;14.03;39.44;98979.08;1698450;85;21021;-86
2022/02/05 12:28:34;;;;;;;14.15;6.85;;;;;;;14.09;42.29;98982.27;1697592;84;21059;-86
2022/02/05 12:31:04;;;;;;;20.12;8.88;;;;;;;14.18;40.23;98984.95;1698454;84;21029;-87
2022/02/05 12:33:49;;;;;;;33.85;13.35;;;;;;;14.13;38.63;98977.31;1698399;84;21059;-86
2022/02/05 12:36:30;;;;;;;19.95;9.48;;;;;;;14.64;39.86;98964.74;1698372;84;21023;-87
2022/02/05 12:39:00;;;;;;;14.13;6.65;;;;;;;14.94;40.04;98964.73;1698059;84;21032;-87
2022/02/05 12:41:29;;;;;;;28.32;11.50;;;;;;;14.46;37.45;98958.94;1698604;84;21063;-86
2022/02/05 12:44:03;;;;;;;16.32;8.15;;;;;;;14.33;38.20;98949.48;1698497;85;21091;-87
2022/02/05 12:46:46;;;;;;;17.98;8.25;;;;;;;13.82;38.88;98954.19;1697690;85;21050;-86
2022/02/05 12:49:20;;;;;;;20.65;9.85;;;;;;;13.66;39.78;98948.73;1698360;84;21039;-87
2022/02/05 12:51:48;;;;;;;19.80;9.28;;;;;;;13.80;39.42;98959.09;1698323;85;21164;-87
2022/02/05 12:54:19;;;;;;;26.57;11.20;;;;;;;13.46;39.18;98956.52;1702591;84;21023;-86
2022/02/05 12:56:47;;;;;;;33.40;14.70;;;;;;;13.15;39.60;98958.98;1698684;85;21019;-88
2022/02/05 12:59:23;;;;;;;18.87;8.50;;;;;;;12.60;40.38;98964.91;1710512;84;21022;-88
2022/02/05 13:01:57;;;;;;;10.90;6.83;;;;;;;12.25;41.94;98961.28;1712535;83;24558;-88
2022/02/05 13:04:33;;;;;;;15.32;6.45;;;;;;;12.16;42.24;98962.92;1706230;83;21164;-87
2022/02/05 13:07:08;;;;;;;11.80;6.22;;;;;;;12.82;42.50;98964.52;1690228;84;21059;-87
2022/02/05 13:09:45;;;;;;;15.28;7.22;;;;;;;13.55;40.84;98971.83;1686722;84;21074;-87
2022/02/05 13:12:10;;;;;;;26.55;9.73;;;;;;;13.94;39.37;98998.58;1659873;85;21099;-87
2022/02/05 13:14:44;;;;;;;13.65;6.28;;;;;;;13.87;38.35;98985.38;1657419;81;21148;-84
2022/02/05 13:17:29;;;;;;;11.37;5.27;;;;;;;14.30;38.15;98997.97;1655845;87;21640;-85
2022/02/05 13:28:05;;;;;;;20.62;8.73;;;;;;;14.07;38.07;99048.61;1655262;87;21013;-85
2022/02/05 13:36:15;;;;;;;22.32;10.85;;;;;;;14.57;38.09;99068.41;1642936;87;21063;-86
2022/02/05 13:41:46;;;;;;;16.55;8.00;;;;;;;13.62;40.56;99072.53;1645760;87;21124;-88
2022/02/05 13:44:13;;;;;;;14.85;7.50;;;;;;;12.85;42.08;99066.17;1640503;87;21314;-87
2022/02/05 13:46:37;;;;;;;18.98;8.75;;;;;;;12.49;42.81;99069.13;1645562;87;21142;-88
2022/02/05 13:49:18;;;;;;;16.35;8.28;;;;;;;11.75;44.09;99063.59;1657832;87;21057;-88
2022/02/05 13:51:45;;;;;;;17.65;8.55;;;;;;;11.39;45.52;99062.09;1654903;87;21040;-88
2022/02/05 13:54:12;;;;;;;16.77;8.58;;;;;;;11.12;45.66;99078.45;1658691;87;20974;-88
2022/02/05 13:56:39;;;;;;;14.93;7.87;;;;;;;10.81;46.36;99090.12;1658598;87;21047;-88
2022/02/05 13:59:05;;;;;;;13.83;7.62;;;;;;;10.48;46.88;99074.92;1658543;87;21060;-87
2022/02/05 14:01:36;;;;;;;18.02;8.83;;;;;;;10.29;48.13;99075.81;1633885;87;20980;-89
2022/02/05 14:04:23;;;;;;;19.23;8.48;;;;;;;10.17;48.21;99080.86;1658674;85;21056;-87
2022/02/05 14:06:58;;;;;;;18.52;8.18;;;;;;;10.03;48.75;99078.58;1710129;83;21031;-91
2022/02/05 14:09:34;;;;;;;14.45;7.90;;;;;;;9.90;49.20;99077.98;1719544;82;21047;-85
2022/02/05 14:12:17;;;;;;;18.20;8.08;;;;;;;9.79;49.49;99079.99;1719418;82;21036;-87
2022/02/05 14:14:44;;;;;;;12.63;6.42;;;;;;;9.54;50.25;99087.44;1719371;82;21078;-87
2022/02/05 14:17:20;;;;;;;16.32;7.45;;;;;;;9.54;48.87;99084.84;1719384;82;21040;-85
2022/02/05 14:19:48;;;;;;;15.98;8.20;;;;;;;9.43;49.97;99091.98;1719346;83;21091;-87
2022/02/05 14:22:25;;;;;;;14.05;7.37;;;;;;;9.32;50.46;99088.33;1687971;85;21024;-86
2022/02/05 14:25:11;;;;;;;16.95;8.05;;;;;;;9.25;49.61;99092.80;1706096;84;21035;-85
2022/02/05 14:27:42;;;;;;;12.63;7.45;;;;;;;9.06;50.11;99105.25;1690648;81;21137;-86
2022/02/05 14:30:12;;;;;;;14.58;7.75;;;;;;;8.93;50.99;99116.30;1680603;84;21004;-84
2022/02/05 14:35:29;;;;;;;15.28;7.20;;;;;;;8.75;51.44;99124.37;1646462;86;21567;-81
2022/02/05 14:42:53;;;;;;;17.35;7.47;;;;;;;8.51;52.19;99130.83;1667187;85;21017;-84
2022/02/05 14:45:20;;;;;;;15.88;7.60;;;;;;;8.46;51.63;99136.09;1666809;85;21083;-85
2022/02/05 14:47:46;;;;;;;16.20;7.85;;;;;;;8.38;52.10;99128.01;1693570;82;21115;-91